Time;durP1;ratioP1;P1;durP2;ratioP2;P2;SDS_P1;SDS_P2;PMS_P1;PMS_P2;Temp;Humidity;BMP_temperature;BMP_pressure;BME280_temperature;BME280_humidity;BME280_pressure;Samples;Min_cycle;Max_cycle;Signal;HPM_P1;HPM_P2
2022/07/20 07:50:02;;;;;;;;;;;36.40;53.50;;;;;;5079804;22;20325;-84
2022/07/20 07:52:28;;;;;;;;;;;36.50;55.60;;;;;;5036431;28;19928;-85
2022/07/20 07:54:53;;;;;;;;;;;36.40;54.00;;;;;;5046262;28;19935;-87
2022/07/20 07:57:20;;;;;;;;;;;36.70;54.30;;;;;;5030137;28;20033;-86
2022/07/20 07:59:46;;;;;;;;;;;36.90;53.20;;;;;;5062880;28;19928;-86
2022/07/20 08:02:12;;;;;;;;;;;36.90;52.40;;;;;;5040377;28;19928;-84
2022/07/20 08:04:37;;;;;;;;;;;37.20;53.40;;;;;;5048609;28;20008;-87
2022/07/20 08:07:03;;;;;;;;;;;37.30;52.90;;;;;;5046259;28;19994;-87
2022/07/20 08:09:29;;;;;;;;;;;37.30;52.90;;;;;;5052202;28;19935;-83
2022/07/20 08:11:55;;;;;;;;;;;37.30;53.40;;;;;;5056394;28;19978;-88
2022/07/20 08:14:22;;;;;;;;;;;37.40;53.00;;;;;;5060844;28;20015;-87
2022/07/20 08:16:48;;;;;;;;;;;37.30;52.70;;;;;;5055691;28;19925;-86
2022/07/20 08:19:17;;;;;;;;;;;37.30;53.50;;;;;;5053040;28;19958;-88
2022/07/20 08:21:42;;;;;;;;;;;37.20;53.60;;;;;;5050836;28;20455;-87
2022/07/20 08:24:08;;;;;;;;;;;37.10;53.70;;;;;;5036907;28;19929;-88
2022/07/20 08:26:34;;;;;;;;;;;36.90;54.10;;;;;;5056774;28;20275;-83
2022/07/20 08:29:00;;;;;;;;;;;36.80;54.00;;;;;;5050404;28;20001;-82
2022/07/20 08:31:26;;;;;;;;;;;36.80;54.90;;;;;;5053376;28;19932;-85
2022/07/20 08:33:51;;;;;;;;;;;36.60;54.90;;;;;;5019794;28;20015;-82
2022/07/20 08:36:17;;;;;;;;;;;36.50;54.80;;;;;;5051980;28;19928;-89
2022/07/20 08:38:43;;;;;;;;;;;36.60;55.50;;;;;;5052874;28;19924;-88
2022/07/20 08:41:11;;;;;;;;;;;36.50;56.00;;;;;;5053385;28;19978;-79
2022/07/20 08:43:37;;;;;;;;;;;36.40;56.40;;;;;;5057222;28;20005;-85
2022/07/20 08:46:02;;;;;;;;;;;36.20;56.50;;;;;;5018429;28;19928;-84
2022/07/20 08:48:29;;;;;;;;;;;36.00;56.80;;;;;;5024226;28;19935;-83
2022/07/20 08:50:55;;;;;;;;;;;36.00;57.10;;;;;;5027088;28;19928;-83
2022/07/20 08:53:20;;;;;;;;;;;36.00;57.50;;;;;;5027665;28;20443;-83
2022/07/20 08:55:47;;;;;;;;;;;35.90;58.10;;;;;;5007111;28;19926;-85
2022/07/20 08:58:14;;;;;;;;;;;35.60;58.60;;;;;;5006337;28;19933;-85
2022/07/20 09:00:40;;;;;;;;;;;35.50;59.20;;;;;;5006854;28;20071;-82
2022/07/20 09:03:08;;;;;;;;;;;35.30;60.00;;;;;;5020848;28;19926;-85
2022/07/20 09:05:35;;;;;;;;;;;35.20;60.40;;;;;;5012648;28;19925;-86
2022/07/20 09:08:02;;;;;;;;;;;35.10;60.80;;;;;;5022716;28;19983;-88
2022/07/20 09:10:35;;;;;;;;;;;35.00;61.30;;;;;;5013909;28;19975;-83
2022/07/20 09:13:02;;;;;;;;;;;34.80;62.10;;;;;;5024144;28;19935;-87
2022/07/20 09:15:29;;;;;;;;;;;34.60;62.10;;;;;;5029736;28;19929;-79
2022/07/20 09:18:14;;;;;;;;;;;34.60;62.80;;;;;;5012274;28;20436;-83
2022/07/20 09:20:55;;;;;;;;;;;34.50;63.00;;;;;;5024563;28;19925;-79
2022/07/20 09:23:29;;;;;;;;;;;34.30;63.50;;;;;;5027907;28;20707;-83
2022/07/20 09:25:55;;;;;;;;;;;34.10;64.00;;;;;;5043925;28;19979;-80
2022/07/20 09:28:21;;;;;;;;;;;33.90;64.90;;;;;;5013060;28;20016;-83
2022/07/20 09:30:51;;;;;;;;;;;33.80;65.30;;;;;;5011895;28;20025;-86
2022/07/20 09:33:30;;;;;;;;;;;33.50;65.10;;;;;;5024389;28;19932;-84
2022/07/20 09:35:57;;;;;;;;;;;33.30;66.00;;;;;;5020279;28;19929;-79
2022/07/20 09:38:33;;;;;;;;;;;33.10;66.20;;;;;;5006645;28;19925;-80
2022/07/20 09:40:59;;;;;;;;;;;33.00;66.60;;;;;;5021613;28;19929;-87
2022/07/20 09:43:26;;;;;;;;;;;32.80;67.30;;;;;;4995491;28;19978;-85
2022/07/20 09:45:54;;;;;;;;;;;32.70;67.70;;;;;;5011386;28;19925;-83
2022/07/20 09:48:23;;;;;;;;;;;32.70;68.70;;;;;;5010187;28;19937;-85
2022/07/20 09:50:49;;;;;;;;;;;32.60;68.80;;;;;;5008085;28;20295;-78
2022/07/20 09:53:15;;;;;;;;;;;32.60;68.60;;;;;;5023044;28;19926;-83
2022/07/20 09:55:41;;;;;;;;;;;32.50;68.70;;;;;;5046861;28;19929;-82
2022/07/20 09:58:08;;;;;;;;;;;32.50;69.10;;;;;;5014996;28;19939;-86
2022/07/20 10:00:35;;;;;;;;;;;32.50;69.00;;;;;;5032133;28;20001;-82
2022/07/20 10:03:02;;;;;;;;;;;32.60;69.30;;;;;;5041943;28;19933;-80
2022/07/20 10:05:29;;;;;;;;;;;32.60;68.40;;;;;;5058924;28;19940;-80
2022/07/20 10:07:55;;;;;;;;;;;32.60;68.80;;;;;;5024390;28;19995;-85
2022/07/20 10:10:21;;;;;;;;;;;32.50;68.30;;;;;;5025888;28;19928;-79
2022/07/20 10:12:48;;;;;;;;;;;32.50;67.40;;;;;;5039650;28;19932;-82
2022/07/20 10:15:18;;;;;;;;;;;32.40;66.70;;;;;;5035431;28;19936;-88
2022/07/20 10:17:44;;;;;;;;;;;32.40;67.00;;;;;;5040852;28;19967;-84
2022/07/20 10:20:30;;;;;;;;;;;32.40;67.10;;;;;;5042881;28;19925;-87
2022/07/20 10:23:22;;;;;;;;;;;32.40;65.00;;;;;;5043120;28;19932;-79
2022/07/20 10:25:48;;;;;;;;;;;32.30;65.10;;;;;;5041866;28;19933;-82
2022/07/20 10:28:24;;;;;;;;;;;32.20;65.10;;;;;;5042299;28;20058;-83
2022/07/20 10:30:55;;;;;;;;;;;32.20;65.50;;;;;;5043295;28;20019;-80
2022/07/20 10:33:21;;;;;;;;;;;31.90;64.40;;;;;;5045175;28;20015;-79
2022/07/20 10:35:48;;;;;;;;;;;31.80;63.60;;;;;;5041159;28;19936;-80
2022/07/20 10:38:21;;;;;;;;;;;31.80;62.70;;;;;;5044270;28;19928;-81
2022/07/20 10:44:09;;;;;;;;;;;31.70;63.10;;;;;;5040733;28;19925;-79
2022/07/20 10:46:35;;;;;;;;;;;31.70;63.50;;;;;;5026572;28;20586;-79
2022/07/20 10:49:01;;;;;;;;;;;31.70;63.60;;;;;;5024746;28;20235;-80
2022/07/20 10:51:27;;;;;;;;;;;31.70;64.00;;;;;;5025172;28;20380;-80
2022/07/20 10:53:53;;;;;;;;;;;31.60;63.60;;;;;;5044730;28;20036;-82
2022/07/20 10:56:28;;;;;;;;;;;31.50;64.30;;;;;;5045912;28;19921;-81
2022/07/20 10:58:58;;;;;;;;;;;31.50;64.90;;;;;;5042021;28;20028;-83
2022/07/20 11:01:24;;;;;;;;;;;31.70;65.80;;;;;;5041020;28;19990;-80
2022/07/20 11:03:50;;;;;;;;;;;31.80;65.70;;;;;;5026065;28;20450;-86
2022/07/20 11:06:18;;;;;;;;;;;31.80;66.10;;;;;;5025237;28;19932;-81
2022/07/20 11:08:55;;;;;;;;;;;31.60;64.40;;;;;;5043928;28;19950;-80
2022/07/20 11:11:24;;;;;;;;;;;31.80;64.80;;;;;;5041632;28;20011;-82
2022/07/20 11:13:51;;;;;;;;;;;31.80;64.60;;;;;;5043440;28;19972;-81
2022/07/20 11:16:18;;;;;;;;;;;31.80;63.60;;;;;;5024908;28;20411;-89
2022/07/20 11:18:44;;;;;;;;;;;31.80;64.20;;;;;;5025354;28;20363;-86
2022/07/20 11:21:11;;;;;;;;;;;32.00;64.70;;;;;;5024750;28;19967;-80
2022/07/20 11:23:40;;;;;;;;;;;32.10;64.10;;;;;;5038535;28;19928;-86
2022/07/20 11:26:07;;;;;;;;;;;32.20;63.40;;;;;;5028749;28;19953;-85
2022/07/20 11:28:34;;;;;;;;;;;32.20;63.20;;;;;;5045421;28;20307;-84
2022/07/20 11:31:05;;;;;;;;;;;32.20;63.10;;;;;;5044522;28;19932;-84
2022/07/20 11:33:35;;;;;;;;;;;32.10;63.60;;;;;;5027072;28;20505;-84
2022/07/20 11:36:08;;;;;;;;;;;32.10;63.10;;;;;;5039842;28;19994;-81
2022/07/20 11:38:44;;;;;;;;;;;32.00;63.20;;;;;;5026585;28;19932;-84
2022/07/20 11:41:13;;;;;;;;;;;32.00;63.40;;;;;;5028106;28;20547;-87
2022/07/20 11:43:39;;;;;;;;;;;31.90;64.20;;;;;;5044464;28;19928;-87
2022/07/20 11:46:16;;;;;;;;;;;32.00;63.70;;;;;;5044229;28;20498;-82
2022/07/20 11:48:43;;;;;;;;;;;32.10;64.30;;;;;;5024407;28;19925;-81
2022/07/20 11:51:10;;;;;;;;;;;31.90;63.80;;;;;;5028916;28;19933;-82
2022/07/20 11:53:40;;;;;;;;;;;32.00;63.40;;;;;;5051105;28;20532;-84
2022/07/20 11:56:17;;;;;;;;;;;31.90;63.70;;;;;;5048167;28;19940;-85
2022/07/20 11:58:44;;;;;;;;;;;31.80;63.30;;;;;;5057931;28;19983;-87
2022/07/20 12:01:11;;;;;;;;;;;31.80;63.00;;;;;;5028587;28;20071;-80
2022/07/20 12:03:38;;;;;;;;;;;31.60;63.10;;;;;;5026409;28;20043;-81
2022/07/20 12:06:06;;;;;;;;;;;31.50;63.30;;;;;;5022971;28;19925;-82
2022/07/20 12:08:32;;;;;;;;;;;31.50;63.50;;;;;;5027076;28;20506;-84
2022/07/20 12:10:58;;;;;;;;;;;31.30;62.70;;;;;;5045036;28;19979;-88
2022/07/20 12:13:24;;;;;;;;;;;31.20;63.30;;;;;;5028114;28;19925;-84
2022/07/20 12:15:51;;;;;;;;;;;31.20;63.40;;;;;;5042111;28;19977;-85
2022/07/20 12:18:32;;;;;;;;;;;31.10;64.20;;;;;;5043414;28;19933;-82
2022/07/20 12:20:59;;;;;;;;;;;30.90;64.50;;;;;;5034650;28;19955;-79
2022/07/20 12:23:25;;;;;;;;;;;30.90;63.40;;;;;;5043434;28;19924;-81
2022/07/20 12:25:52;;;;;;;;;;;30.60;63.60;;;;;;5043585;28;19973;-79
2022/07/20 12:28:36;;;;;;;;;;;30.70;63.80;;;;;;5041729;28;19936;-86
2022/07/20 12:31:11;;;;;;;;;;;30.60;63.80;;;;;;5064277;28;19931;-84
2022/07/20 12:33:38;;;;;;;;;;;30.60;64.40;;;;;;5029829;28;19928;-86
2022/07/20 12:36:10;;;;;;;;;;;30.50;64.30;;;;;;5023828;28;19933;-82
2022/07/20 12:38:53;;;;;;;;;;;30.50;65.10;;;;;;5026493;28;19932;-81
2022/07/20 12:41:23;;;;;;;;;;;30.50;65.20;;;;;;5016424;28;20470;-82
2022/07/20 12:47:30;;;;;;;;;;;30.40;63.30;;;;;;5044192;28;20008;-87
2022/07/20 12:53:41;;;;;;;;;;;30.10;62.10;;;;;;5066039;28;20362;-85
2022/07/20 12:56:07;;;;;;;;;;;30.00;61.60;;;;;;5073071;23;19994;-82
2022/07/20 12:58:33;;;;;;;;;;;29.80;62.50;;;;;;5015238;23;19929;-80
2022/07/20 13:01:01;;;;;;;;;;;29.80;63.80;;;;;;4994193;28;20432;-81
2022/07/20 13:03:26;;;;;;;;;;;29.70;64.70;;;;;;5011897;28;19939;-84
2022/07/20 13:06:20;;;;;;;;;;;29.70;64.80;;;;;;5008011;28;20483;-82
2022/07/20 13:08:46;;;;;;;;;;;29.60;65.30;;;;;;5012289;28;19983;-85
2022/07/20 13:14:59;;;;;;;;;;;29.70;64.80;;;;;;5070611;23;19983;-85
2022/07/20 13:17:44;;;;;;;;;;;29.60;65.50;;;;;;5033736;28;19924;-82
2022/07/20 13:23:35;;;;;;;;;;;29.70;65.20;;;;;;4965173;28;19933;-83
2022/07/20 13:26:13;;;;;;;;;;;29.60;65.60;;;;;;4970238;28;20016;-81
2022/07/20 13:28:57;;;;;;;;;;;29.50;66.20;;;;;;4981142;28;20081;-82
2022/07/20 13:31:23;;;;;;;;;;;29.60;67.10;;;;;;4989104;28;19924;-83
2022/07/20 13:33:54;;;;;;;;;;;29.60;65.80;;;;;;5031774;28;19969;-81
2022/07/20 13:36:30;;;;;;;;;;;29.50;65.20;;;;;;5047871;28;19966;-81
2022/07/20 13:39:05;;;;;;;;;;;29.40;65.70;;;;;;5064494;28;19932;-80
2022/07/20 13:41:33;;;;;;;;;;;29.40;66.40;;;;;;5069983;28;19924;-81
2022/07/20 13:44:14;;;;;;;;;;;29.40;66.90;;;;;;5046505;28;20301;-81
2022/07/20 13:50:20;;;;;;;;;;;29.30;66.50;;;;;;5084363;28;19970;-83
2022/07/20 13:56:09;;;;;;;;;;;29.20;67.20;;;;;;5069408;28;19936;-81
2022/07/20 13:58:41;;;;;;;;;;;29.10;67.10;;;;;;5066736;28;19924;-83
2022/07/20 14:01:48;;;;;;;;;;;29.10;67.10;;;;;;5064371;28;20050;-82
2022/07/20 14:04:17;;;;;;;;;;;29.10;66.90;;;;;;5045963;28;19932;-83
2022/07/20 14:06:44;;;;;;;;;;;29.00;66.80;;;;;;5031772;28;19931;-81
2022/07/20 14:09:41;;;;;;;;;;;29.00;67.20;;;;;;5048312;28;19975;-84
2022/07/20 14:12:08;;;;;;;;;;;29.00;67.20;;;;;;5049216;28;19935;-88
2022/07/20 14:14:37;;;;;;;;;;;29.00;68.30;;;;;;5052993;28;20347;-83
2022/07/20 14:17:21;;;;;;;;;;;29.00;67.60;;;;;;5004833;28;19929;-82
2022/07/20 14:25:32;;;;;;;;;;;28.90;67.40;;;;;;5415147;22;19933;-81
2022/07/20 14:30:56;;;;;;;;;;;28.90;67.80;;;;;;5274634;22;19928;-82
2022/07/20 14:33:22;;;;;;;;;;;28.90;67.80;;;;;;5054332;28;20312;-83
2022/07/20 14:39:00;;;;;;;;;;;28.90;68.00;;;;;;6069872;22;20064;-81
2022/07/20 14:41:49;;;;;;;;;;;28.90;69.50;;;;;;4992164;28;19972;-82
2022/07/20 14:44:25;;;;;;;;;;;28.90;69.10;;;;;;5011553;28;19932;-85
2022/07/20 14:46:52;;;;;;;;;;;28.90;68.10;;;;;;5011296;28;19956;-80
2022/07/20 14:49:18;;;;;;;;;;;28.80;68.20;;;;;;5043124;28;19937;-82
2022/07/20 14:51:44;;;;;;;;;;;28.80;68.80;;;;;;5010732;28;20135;-80
2022/07/20 14:54:10;;;;;;;;;;;28.80;68.70;;;;;;5028028;28;20299;-81
2022/07/20 14:56:43;;;;;;;;;;;28.80;69.90;;;;;;5028982;28;19920;-80
2022/07/20 15:03:08;;;;;;;;;;;28.70;70.10;;;;;;5044436;28;19991;-83
2022/07/20 15:05:34;;;;;;;;;;;28.70;70.00;;;;;;5009852;28;19951;-79
2022/07/20 15:08:01;;;;;;;;;;;28.60;69.80;;;;;;5014703;28;19928;-81
2022/07/20 15:10:30;;;;;;;;;;;28.60;70.20;;;;;;5011860;28;19928;-82
2022/07/20 15:13:24;;;;;;;;;;;28.60;69.20;;;;;;5041689;28;20035;-81
2022/07/20 15:15:53;;;;;;;;;;;28.60;69.40;;;;;;5072721;23;20589;-80
2022/07/20 15:18:22;;;;;;;;;;;28.60;70.10;;;;;;5012813;28;19932;-82
2022/07/20 15:20:48;;;;;;;;;;;28.60;70.20;;;;;;5019324;28;20099;-81
2022/07/20 15:23:14;;;;;;;;;;;28.60;71.20;;;;;;5041480;28;19999;-81
2022/07/20 15:25:59;;;;;;;;;;;28.60;70.70;;;;;;5040323;28;19924;-80
2022/07/20 15:28:25;;;;;;;;;;;28.60;71.10;;;;;;5040591;28;20043;-80
2022/07/20 15:30:51;;;;;;;;;;;28.60;71.80;;;;;;5029324;28;19932;-79
2022/07/20 15:33:17;;;;;;;;;;;28.60;71.80;;;;;;5015070;28;19982;-81
2022/07/20 15:35:43;;;;;;;;;;;28.70;72.60;;;;;;5002915;28;19932;-85
2022/07/20 15:41:25;;;;;;;;;;;28.70;72.60;;;;;;5031956;28;19925;-79
2022/07/20 15:43:51;;;;;;;;;;;28.70;73.30;;;;;;4981877;28;19976;-81
2022/07/20 15:46:27;;;;;;;;;;;28.70;72.10;;;;;;5003667;28;19947;-78
2022/07/20 15:48:55;;;;;;;;;;;28.70;72.30;;;;;;4986845;28;20027;-84
2022/07/20 15:54:19;;;;;;;;;;;28.70;72.20;;;;;;4989941;28;20354;-81
2022/07/20 16:02:39;;;;;;;;;;;28.70;71.70;;;;;;5040521;28;19932;-81
2022/07/20 16:05:14;;;;;;;;;;;28.60;71.80;;;;;;5027760;28;19934;-81
2022/07/20 16:07:40;;;;;;;;;;;28.60;71.90;;;;;;5049558;28;19924;-81
2022/07/20 16:10:09;;;;;;;;;;;28.50;72.00;;;;;;5095212;23;19967;-81
2022/07/20 16:12:36;;;;;;;;;;;28.60;71.90;;;;;;5064986;28;20017;-82
2022/07/20 16:18:25;;;;;;;;;;;28.50;72.00;;;;;;5060685;28;19965;-79
2022/07/20 16:21:15;;;;;;;;;;;28.20;73.80;;;;;;5049181;28;19962;-82
2022/07/20 16:23:53;;;;;;;;;;;28.20;73.90;;;;;;5046231;28;19997;-81
2022/07/20 16:26:32;;;;;;;;;;;28.20;74.20;;;;;;5036810;28;19932;-81
2022/07/20 16:32:24;;;;;;;;;;;28.00;74.10;;;;;;5062957;28;20272;-80
2022/07/20 16:35:08;;;;;;;;;;;27.90;73.70;;;;;;5025853;28;19928;-80
2022/07/20 16:41:42;;;;;;;;;;;27.80;74.40;;;;;;5027687;28;20020;-83
2022/07/20 16:49:14;;;;;;;;;;;27.50;76.20;;;;;;5194633;22;20019;-80
2022/07/20 16:52:04;;;;;;;;;;;27.30;75.80;;;;;;5055085;28;19976;-80
2022/07/20 16:55:09;;;;;;;;;;;27.20;77.10;;;;;;5051078;28;20355;-80
2022/07/20 16:57:35;;;;;;;;;;;27.10;77.50;;;;;;4966294;28;20018;-80
2022/07/20 17:00:08;;;;;;;;;;;26.90;78.60;;;;;;4938628;28;20375;-79
2022/07/20 17:02:34;;;;;;;;;;;26.70;79.50;;;;;;5011693;28;19928;-79
2022/07/20 17:05:12;;;;;;;;;;;26.60;80.30;;;;;;5135180;23;19928;-83
2022/07/20 17:07:52;;;;;;;;;;;26.50;81.30;;;;;;5045320;28;19925;-81
2022/07/20 17:10:18;;;;;;;;;;;26.40;82.00;;;;;;5013182;28;19959;-82
2022/07/20 17:12:44;;;;;;;;;;;26.30;82.00;;;;;;5028780;28;19959;-79
2022/07/20 17:15:10;;;;;;;;;;;26.20;82.30;;;;;;5028267;28;19924;-82
2022/07/20 17:17:36;;;;;;;;;;;26.10;82.20;;;;;;5023462;28;19933;-84
2022/07/20 17:20:03;;;;;;;;;;;26.00;83.00;;;;;;5014074;28;19936;-79
2022/07/20 17:22:29;;;;;;;;;;;25.90;82.30;;;;;;5037840;28;20387;-85
2022/07/20 17:24:55;;;;;;;;;;;25.70;83.00;;;;;;4993073;28;19929;-83
2022/07/20 17:27:20;;;;;;;;;;;25.70;84.00;;;;;;4987559;28;19940;-80
2022/07/20 17:29:46;;;;;;;;;;;25.60;84.50;;;;;;5022879;28;19929;-81
2022/07/20 17:32:12;;;;;;;;;;;25.50;84.80;;;;;;4998790;28;20391;-82
2022/07/20 17:34:38;;;;;;;;;;;25.40;84.90;;;;;;4996800;28;19988;-83
2022/07/20 17:37:04;;;;;;;;;;;25.30;84.30;;;;;;5011362;28;19924;-83
2022/07/20 17:39:34;;;;;;;;;;;25.20;85.30;;;;;;4994441;28;20015;-84
2022/07/20 17:42:00;;;;;;;;;;;25.20;85.30;;;;;;4990725;28;20280;-85
2022/07/20 17:44:26;;;;;;;;;;;25.10;86.20;;;;;;4993990;28;20414;-84
2022/07/20 17:46:55;;;;;;;;;;;25.10;85.80;;;;;;5025644;28;20368;-82
2022/07/20 17:49:24;;;;;;;;;;;25.00;86.40;;;;;;5012702;28;20011;-82
2022/07/20 17:51:52;;;;;;;;;;;24.90;87.10;;;;;;5009687;28;20023;-80
2022/07/20 17:54:19;;;;;;;;;;;24.90;87.60;;;;;;4993372;28;19933;-81
2022/07/20 17:56:46;;;;;;;;;;;24.90;88.30;;;;;;5024552;28;19921;-80
2022/07/20 17:59:12;;;;;;;;;;;24.80;89.20;;;;;;5011074;28;19928;-82
2022/07/20 18:01:37;;;;;;;;;;;24.70;89.80;;;;;;5022446;28;19925;-82
2022/07/20 18:04:04;;;;;;;;;;;24.70;90.10;;;;;;5007414;28;19956;-84
2022/07/20 18:06:55;;;;;;;;;;;24.50;90.50;;;;;;4994652;28;19925;-82
2022/07/20 18:09:21;;;;;;;;;;;24.50;90.60;;;;;;5013318;28;20705;-82
2022/07/20 18:11:47;;;;;;;;;;;23.90;90.60;;;;;;4980903;28;19925;-82
2022/07/20 18:14:13;;;;;;;;;;;24.40;91.10;;;;;;4980376;28;19925;-82
2022/07/20 18:16:43;;;;;;;;;;;24.40;91.10;;;;;;4990487;28;20180;-83
2022/07/20 18:19:09;;;;;;;;;;;24.40;91.60;;;;;;5001794;28;20456;-82
2022/07/20 18:21:35;;;;;;;;;;;24.30;91.70;;;;;;4986899;28;19972;-82
2022/07/20 18:24:01;;;;;;;;;;;24.30;91.40;;;;;;5006465;28;20188;-82
2022/07/20 18:26:27;;;;;;;;;;;24.30;91.90;;;;;;5010118;28;19929;-82
2022/07/20 18:28:53;;;;;;;;;;;24.20;91.90;;;;;;4990363;28;19979;-82
2022/07/20 18:31:29;;;;;;;;;;;24.30;92.00;;;;;;4990120;28;19929;-83
2022/07/20 18:33:55;;;;;;;;;;;24.20;91.50;;;;;;4992207;28;19925;-82
2022/07/20 18:36:21;;;;;;;;;;;24.20;91.90;;;;;;4988123;28;20395;-83
2022/07/20 18:38:47;;;;;;;;;;;24.20;91.90;;;;;;4984862;28;19937;-82
2022/07/20 18:41:12;;;;;;;;;;;24.20;91.80;;;;;;4991381;28;19929;-88
2022/07/20 18:43:38;;;;;;;;;;;24.20;91.70;;;;;;5008160;28;19936;-84
2022/07/20 18:46:07;;;;;;;;;;;24.20;91.60;;;;;;5001479;28;20292;-85
2022/07/20 18:48:34;;;;;;;;;;;24.10;91.30;;;;;;4994067;28;19925;-88
2022/07/20 18:51:02;;;;;;;;;;;24.10;91.80;;;;;;4988725;28;19933;-86
2022/07/20 18:53:28;;;;;;;;;;;24.00;91.80;;;;;;5006565;28;20060;-81
2022/07/20 18:55:54;;;;;;;;;;;23.90;92.20;;;;;;4978457;28;19968;-80
2022/07/20 18:58:21;;;;;;;;;;;23.90;92.50;;;;;;4990626;28;19925;-82
2022/07/20 19:00:48;;;;;;;;;;;23.90;92.90;;;;;;5009672;28;19951;-91
2022/07/20 19:03:14;;;;;;;;;;;23.80;94.20;;;;;;5003190;28;20412;-86
2022/07/20 19:05:42;;;;;;;;;;;23.70;95.70;;;;;;5006227;28;21158;-88
2022/07/20 19:08:08;;;;;;;;;;;23.60;97.00;;;;;;5028691;28;19925;-81
2022/07/20 19:10:34;;;;;;;;;;;23.50;98.60;;;;;;5013335;28;19929;-79
2022/07/20 19:13:00;;;;;;;;;;;23.40;99.20;;;;;;5043009;28;20311;-86
2022/07/20 19:15:26;;;;;;;;;;;23.30;99.90;;;;;;5015824;28;19932;-86
2022/07/20 19:17:53;;;;;;;;;;;23.30;99.90;;;;;;4997346;28;19929;-82
2022/07/20 19:20:23;;;;;;;;;;;23.20;99.90;;;;;;5020648;28;19929;-84
2022/07/20 19:22:49;;;;;;;;;;;23.10;99.90;;;;;;5028156;28;19925;-89
2022/07/20 19:25:33;;;;;;;;;;;23.10;99.90;;;;;;5011669;28;20035;-92
2022/07/20 19:28:00;;;;;;;;;;;23.00;99.90;;;;;;5008981;28;19985;-87
2022/07/20 19:30:28;;;;;;;;;;;23.00;99.90;;;;;;4991602;28;20463;-81
2022/07/20 19:32:54;;;;;;;;;;;22.90;99.90;;;;;;5006363;28;19955;-86
2022/07/20 19:35:21;;;;;;;;;;;22.90;99.90;;;;;;4993859;28;19990;-81
2022/07/20 19:37:48;;;;;;;;;;;22.90;99.90;;;;;;5012625;28;20051;-89
2022/07/20 19:40:14;;;;;;;;;;;22.90;99.90;;;;;;5031370;28;19925;-87
2022/07/20 19:42:40;;;;;;;;;;;23.00;99.90;;;;;;5025108;28;19955;-87
2022/07/20 19:45:07;;;;;;;;;;;23.00;99.90;;;;;;5011174;28;19932;-85
2022/07/20 19:47:35;;;;;;;;;;;23.00;99.90;;;;;;5012484;28;19929;-87
2022/07/20 19:50:03;;;;;;;;;;;22.90;99.90;;;;;;5011998;28;20101;-89
2022/07/20 19:52:29;;;;;;;;;;;23.00;99.90;;;;;;5012169;28;19929;-89
2022/07/20 19:55:17;;;;;;;;;;;23.00;99.90;;;;;;5014489;28;19983;-87
2022/07/20 19:57:43;;;;;;;;;;;23.00;99.90;;;;;;5039564;28;20334;-85
2022/07/20 20:00:10;;;;;;;;;;;23.00;99.90;;;;;;4989484;28;19933;-83
2022/07/20 20:02:36;;;;;;;;;;;23.00;99.90;;;;;;4989763;28;19925;-83
2022/07/20 20:05:04;;;;;;;;;;;23.00;99.90;;;;;;5006986;28;20517;-83
2022/07/20 20:07:34;;;;;;;;;;;22.90;99.90;;;;;;5007124;28;19925;-86
2022/07/20 20:10:00;;;;;;;;;;;22.90;99.90;;;;;;5026199;28;20027;-83
2022/07/20 20:12:29;;;;;;;;;;;22.80;99.90;;;;;;4995155;28;19959;-84
2022/07/20 20:14:55;;;;;;;;;;;22.80;99.90;;;;;;5011346;28;20396;-81
2022/07/20 20:17:22;;;;;;;;;;;22.70;99.90;;;;;;5012666;28;19944;-84
2022/07/20 20:19:48;;;;;;;;;;;22.60;99.90;;;;;;5011063;28;19928;-86
2022/07/20 20:22:14;;;;;;;;;;;22.50;99.90;;;;;;5009425;28;20411;-83
2022/07/20 20:24:41;;;;;;;;;;;22.50;99.90;;;;;;5030361;28;20376;-86
2022/07/20 20:27:10;;;;;;;;;;;22.50;99.90;;;;;;5007865;28;19933;-88
2022/07/20 20:29:36;;;;;;;;;;;22.40;99.90;;;;;;5027814;28;19925;-86
2022/07/20 20:32:02;;;;;;;;;;;22.40;99.90;;;;;;4992828;28;19925;-85
2022/07/20 20:34:28;;;;;;;;;;;22.30;99.90;;;;;;5012527;28;19933;-84
2022/07/20 20:36:55;;;;;;;;;;;22.10;99.90;;;;;;5011532;28;19925;-84
2022/07/20 20:39:21;;;;;;;;;;;22.20;99.90;;;;;;5026649;28;19932;-80
2022/07/20 20:41:48;;;;;;;;;;;22.20;99.90;;;;;;5028547;28;19933;-83
2022/07/20 20:44:15;;;;;;;;;;;22.20;99.90;;;;;;5012340;28;20506;-85
2022/07/20 20:46:41;;;;;;;;;;;22.10;99.90;;;;;;5029495;28;20355;-85
2022/07/20 20:49:07;;;;;;;;;;;22.10;99.90;;;;;;5030390;28;19964;-84
2022/07/20 20:51:33;;;;;;;;;;;22.00;99.90;;;;;;5026674;28;19964;-84
2022/07/20 20:54:00;;;;;;;;;;;22.10;99.90;;;;;;5028524;28;19940;-85
2022/07/20 20:56:28;;;;;;;;;;;22.00;99.90;;;;;;5026531;28;19934;-84
2022/07/20 20:58:54;;;;;;;;;;;22.00;99.90;;;;;;5027992;28;19932;-85
2022/07/20 21:01:22;;;;;;;;;;;22.00;99.90;;;;;;4995354;28;19933;-84
2022/07/20 21:03:48;;;;;;;;;;;22.00;99.90;;;;;;5012060;28;20456;-86
2022/07/20 21:06:14;;;;;;;;;;;22.00;99.90;;;;;;5029098;28;19935;-86
2022/07/20 21:08:40;;;;;;;;;;;22.00;99.90;;;;;;5012258;28;20287;-86
2022/07/20 21:11:07;;;;;;;;;;;22.00;99.90;;;;;;5013598;28;19925;-86
2022/07/20 21:16:37;;;;;;;;;;;22.00;99.90;;;;;;5031216;28;19936;-84
2022/07/20 21:19:04;;;;;;;;;;;22.00;99.90;;;;;;5021212;28;19925;-85
2022/07/20 21:21:30;;;;;;;;;;;22.00;99.90;;;;;;5012694;28;19932;-85
2022/07/20 21:23:58;;;;;;;;;;;21.90;99.90;;;;;;5013661;28;19925;-84
2022/07/20 21:26:45;;;;;;;;;;;21.90;99.90;;;;;;5014804;28;19940;-84
2022/07/20 21:29:11;;;;;;;;;;;21.80;99.90;;;;;;5012332;28;19959;-85
2022/07/20 21:31:37;;;;;;;;;;;21.80;99.90;;;;;;5014076;28;20583;-83
2022/07/20 21:34:03;;;;;;;;;;;21.80;99.90;;;;;;5030582;28;19971;-85
2022/07/20 21:36:30;;;;;;;;;;;21.80;99.90;;;;;;5012119;28;19960;-84
2022/07/20 21:39:15;;;;;;;;;;;21.80;99.90;;;;;;5023236;28;19921;-84
2022/07/20 21:41:41;;;;;;;;;;;21.80;99.90;;;;;;5012981;28;19998;-84
2022/07/20 21:44:06;;;;;;;;;;;21.80;99.90;;;;;;4996359;28;20005;-84
2022/07/20 21:46:34;;;;;;;;;;;21.70;99.90;;;;;;5010942;28;19976;-85
2022/07/20 21:49:02;;;;;;;;;;;21.70;99.90;;;;;;4994992;28;20011;-82
2022/07/20 21:51:28;;;;;;;;;;;21.70;99.90;;;;;;5008864;28;19979;-82
2022/07/20 21:53:54;;;;;;;;;;;21.70;99.90;;;;;;5014173;28;19940;-82
2022/07/20 21:56:21;;;;;;;;;;;21.70;99.90;;;;;;5013561;28;20273;-81
2022/07/20 21:58:53;;;;;;;;;;;21.60;99.90;;;;;;5029614;28;19929;-85
2022/07/20 22:01:20;;;;;;;;;;;21.60;99.90;;;;;;5010353;28;19988;-86
2022/07/20 22:03:47;;;;;;;;;;;21.60;99.90;;;;;;5029206;28;19926;-84
2022/07/20 22:06:14;;;;;;;;;;;21.50;99.90;;;;;;5023375;28;20350;-85
2022/07/20 22:08:40;;;;;;;;;;;21.40;99.90;;;;;;4998067;28;19932;-85
2022/07/20 22:11:06;;;;;;;;;;;21.40;99.90;;;;;;5024633;28;20017;-86
2022/07/20 22:13:32;;;;;;;;;;;21.40;99.90;;;;;;4981820;28;19925;-83
2022/07/20 22:16:00;;;;;;;;;;;21.30;99.90;;;;;;4997222;28;19979;-82
2022/07/20 22:18:45;;;;;;;;;;;21.30;99.90;;;;;;4995044;28;19932;-82
2022/07/20 22:21:11;;;;;;;;;;;21.30;99.90;;;;;;4994988;28;19925;-84
2022/07/20 22:23:37;;;;;;;;;;;21.30;99.90;;;;;;4996889;28;19991;-84
2022/07/20 22:26:02;;;;;;;;;;;21.30;99.90;;;;;;5011350;28;19940;-83
2022/07/20 22:28:28;;;;;;;;;;;21.30;99.90;;;;;;5010351;28;19986;-83
2022/07/20 22:30:54;;;;;;;;;;;21.20;99.90;;;;;;4976880;28;19984;-83
2022/07/20 22:33:21;;;;;;;;;;;21.30;99.90;;;;;;4979236;28;19976;-85
2022/07/20 22:35:49;;;;;;;;;;;21.30;99.90;;;;;;4992020;28;19933;-82
2022/07/20 22:38:15;;;;;;;;;;;21.30;99.90;;;;;;5019971;28;19929;-85
2022/07/20 22:40:41;;;;;;;;;;;21.30;99.90;;;;;;4997881;28;19929;-85
2022/07/20 22:43:08;;;;;;;;;;;21.20;99.90;;;;;;4982106;28;20454;-85
2022/07/20 22:45:36;;;;;;;;;;;21.20;99.90;;;;;;4997978;28;19932;-81
2022/07/20 22:48:07;;;;;;;;;;;21.10;99.90;;;;;;5015585;28;19952;-84
2022/07/20 22:50:34;;;;;;;;;;;21.10;99.90;;;;;;4981295;28;20522;-83
2022/07/20 22:53:00;;;;;;;;;;;21.10;99.90;;;;;;4997984;28;19925;-84
2022/07/20 22:55:26;;;;;;;;;;;21.10;99.90;;;;;;4994703;28;20434;-82
2022/07/20 22:57:53;;;;;;;;;;;21.10;99.90;;;;;;4983975;28;19987;-89
2022/07/20 23:00:30;;;;;;;;;;;21.10;99.90;;;;;;5014196;28;19943;-85
2022/07/20 23:02:56;;;;;;;;;;;21.10;99.90;;;;;;4997014;28;19925;-86
2022/07/20 23:05:22;;;;;;;;;;;21.10;99.90;;;;;;5018400;28;19982;-86
2022/07/20 23:07:53;;;;;;;;;;;21.10;99.90;;;;;;4998179;28;20296;-83
2022/07/20 23:10:19;;;;;;;;;;;21.10;99.90;;;;;;5011660;28;20601;-85
2022/07/20 23:12:46;;;;;;;;;;;21.00;99.90;;;;;;5015557;28;19931;-85
2022/07/20 23:15:12;;;;;;;;;;;21.00;99.90;;;;;;5010893;28;19937;-85
2022/07/20 23:17:38;;;;;;;;;;;21.00;99.90;;;;;;4977974;28;19929;-86
2022/07/20 23:20:07;;;;;;;;;;;21.00;99.90;;;;;;4991478;28;19925;-85
2022/07/20 23:22:33;;;;;;;;;;;21.00;99.90;;;;;;5008788;28;19925;-83
2022/07/20 23:24:59;;;;;;;;;;;21.00;99.90;;;;;;5002190;28;19925;-83
2022/07/20 23:27:26;;;;;;;;;;;21.00;99.90;;;;;;4994989;28;20911;-87